sensor_id;sensor_type;location;lat;lon;timestamp;temperature;humidity
40960;DHT22;27842;52.272;8.052;2023-06-22T00:01:56;23.20;76.50
40960;DHT22;27842;52.272;8.052;2023-06-22T00:04:21;23.20;76.40
40960;DHT22;27842;52.272;8.052;2023-06-22T00:06:47;23.20;76.30
40960;DHT22;27842;52.272;8.052;2023-06-22T00:09:12;23.20;77.10
40960;DHT22;27842;52.272;8.052;2023-06-22T00:11:40;23.20;76.50
40960;DHT22;27842;52.272;8.052;2023-06-22T00:14:06;23.20;76.80
40960;DHT22;27842;52.272;8.052;2023-06-22T00:16:32;23.20;76.70
40960;DHT22;27842;52.272;8.052;2023-06-22T00:18:58;23.10;76.70
40960;DHT22;27842;52.272;8.052;2023-06-22T00:21:29;23.10;76.80
40960;DHT22;27842;52.272;8.052;2023-06-22T00:23:57;23.10;77.00
40960;DHT22;27842;52.272;8.052;2023-06-22T00:26:23;23.00;77.10
40960;DHT22;27842;52.272;8.052;2023-06-22T00:28:48;23.00;77.20
40960;DHT22;27842;52.272;8.052;2023-06-22T00:31:17;23.00;77.20
40960;DHT22;27842;52.272;8.052;2023-06-22T00:33:42;23.00;77.10
40960;DHT22;27842;52.272;8.052;2023-06-22T00:36:08;22.90;77.40
40960;DHT22;27842;52.272;8.052;2023-06-22T00:38:34;22.90;77.60
40960;DHT22;27842;52.272;8.052;2023-06-22T00:40:59;22.90;77.70
40960;DHT22;27842;52.272;8.052;2023-06-22T00:43:28;22.90;78.00
40960;DHT22;27842;52.272;8.052;2023-06-22T00:45:55;22.80;77.60
40960;DHT22;27842;52.272;8.052;2023-06-22T00:48:21;22.80;77.60
40960;DHT22;27842;52.272;8.052;2023-06-22T00:50:47;22.80;77.80
40960;DHT22;27842;52.272;8.052;2023-06-22T00:53:19;22.70;77.90
40960;DHT22;27842;52.272;8.052;2023-06-22T00:55:45;22.70;77.80
40960;DHT22;27842;52.272;8.052;2023-06-22T00:58:12;22.70;77.80
40960;DHT22;27842;52.272;8.052;2023-06-22T01:00:38;22.70;78.00
40960;DHT22;27842;52.272;8.052;2023-06-22T01:03:07;22.70;77.90
40960;DHT22;27842;52.272;8.052;2023-06-22T01:05:36;22.70;77.90
40960;DHT22;27842;52.272;8.052;2023-06-22T01:15:51;22.70;78.00
40960;DHT22;27842;52.272;8.052;2023-06-22T01:18:18;22.60;78.00
40960;DHT22;27842;52.272;8.052;2023-06-22T01:20:44;22.60;79.20
40960;DHT22;27842;52.272;8.052;2023-06-22T01:25:53;22.60;78.30
40960;DHT22;27842;52.272;8.052;2023-06-22T01:28:34;22.60;78.70
40960;DHT22;27842;52.272;8.052;2023-06-22T01:31:03;22.60;78.10
40960;DHT22;27842;52.272;8.052;2023-06-22T01:33:32;22.60;78.30
40960;DHT22;27842;52.272;8.052;2023-06-22T01:35:59;22.50;78.50
40960;DHT22;27842;52.272;8.052;2023-06-22T01:38:28;22.50;78.40
40960;DHT22;27842;52.272;8.052;2023-06-22T01:40:54;22.50;78.40
40960;DHT22;27842;52.272;8.052;2023-06-22T01:43:20;22.50;78.40
40960;DHT22;27842;52.272;8.052;2023-06-22T01:45:48;22.50;78.50
40960;DHT22;27842;52.272;8.052;2023-06-22T01:48:14;22.40;78.40
40960;DHT22;27842;52.272;8.052;2023-06-22T01:50:39;22.50;78.40
40960;DHT22;27842;52.272;8.052;2023-06-22T01:53:05;22.50;78.50
40960;DHT22;27842;52.272;8.052;2023-06-22T01:55:32;22.50;78.50
40960;DHT22;27842;52.272;8.052;2023-06-22T01:57:57;22.50;78.70
40960;DHT22;27842;52.272;8.052;2023-06-22T02:00:23;22.40;78.60
40960;DHT22;27842;52.272;8.052;2023-06-22T02:05:16;22.40;78.60
40960;DHT22;27842;52.272;8.052;2023-06-22T02:07:45;22.40;78.80
40960;DHT22;27842;52.272;8.052;2023-06-22T02:10:11;22.40;79.00
40960;DHT22;27842;52.272;8.052;2023-06-22T02:12:42;22.40;79.10
40960;DHT22;27842;52.272;8.052;2023-06-22T02:15:11;22.40;78.90
40960;DHT22;27842;52.272;8.052;2023-06-22T02:17:38;22.40;79.00
40960;DHT22;27842;52.272;8.052;2023-06-22T02:20:03;22.40;79.00
40960;DHT22;27842;52.272;8.052;2023-06-22T02:22:33;22.40;79.80
40960;DHT22;27842;52.272;8.052;2023-06-22T02:24:59;22.30;79.40
40960;DHT22;27842;52.272;8.052;2023-06-22T02:27:25;22.30;79.20
40960;DHT22;27842;52.272;8.052;2023-06-22T02:29:50;22.30;80.00
40960;DHT22;27842;52.272;8.052;2023-06-22T02:32:19;22.30;79.40
40960;DHT22;27842;52.272;8.052;2023-06-22T02:34:44;22.20;79.40
40960;DHT22;27842;52.272;8.052;2023-06-22T02:37:13;22.10;79.30
40960;DHT22;27842;52.272;8.052;2023-06-22T02:39:39;22.20;79.40
40960;DHT22;27842;52.272;8.052;2023-06-22T02:42:05;22.10;79.30
40960;DHT22;27842;52.272;8.052;2023-06-22T02:44:34;22.20;79.50
40960;DHT22;27842;52.272;8.052;2023-06-22T02:46:59;22.20;79.50
40960;DHT22;27842;52.272;8.052;2023-06-22T02:49:25;22.20;79.50
40960;DHT22;27842;52.272;8.052;2023-06-22T02:51:53;22.20;79.60
40960;DHT22;27842;52.272;8.052;2023-06-22T02:54:20;22.20;79.60
40960;DHT22;27842;52.272;8.052;2023-06-22T02:56:49;22.20;80.30
40960;DHT22;27842;52.272;8.052;2023-06-22T02:59:16;22.20;79.70
40960;DHT22;27842;52.272;8.052;2023-06-22T03:01:41;22.10;79.70
40960;DHT22;27842;52.272;8.052;2023-06-22T03:04:07;22.10;79.70
40960;DHT22;27842;52.272;8.052;2023-06-22T03:06:33;22.10;79.70
40960;DHT22;27842;52.272;8.052;2023-06-22T03:09:02;22.10;79.70
40960;DHT22;27842;52.272;8.052;2023-06-22T03:11:29;22.10;79.90
40960;DHT22;27842;52.272;8.052;2023-06-22T03:14:03;22.10;79.80
40960;DHT22;27842;52.272;8.052;2023-06-22T03:16:29;22.00;80.00
40960;DHT22;27842;52.272;8.052;2023-06-22T03:18:54;22.00;79.90
40960;DHT22;27842;52.272;8.052;2023-06-22T03:21:23;21.90;80.00
40960;DHT22;27842;52.272;8.052;2023-06-22T03:23:48;21.90;80.00
40960;DHT22;27842;52.272;8.052;2023-06-22T03:26:16;21.90;80.00
40960;DHT22;27842;52.272;8.052;2023-06-22T03:28:41;22.00;80.00
40960;DHT22;27842;52.272;8.052;2023-06-22T03:31:07;22.00;80.00
40960;DHT22;27842;52.272;8.052;2023-06-22T03:33:33;21.90;80.00
40960;DHT22;27842;52.272;8.052;2023-06-22T03:36:02;21.90;80.10
40960;DHT22;27842;52.272;8.052;2023-06-22T03:38:27;21.90;80.20
40960;DHT22;27842;52.272;8.052;2023-06-22T03:40:56;21.90;80.20
40960;DHT22;27842;52.272;8.052;2023-06-22T03:43:21;21.90;80.30
40960;DHT22;27842;52.272;8.052;2023-06-22T03:45:47;21.80;80.30
40960;DHT22;27842;52.272;8.052;2023-06-22T03:48:12;21.80;80.20
40960;DHT22;27842;52.272;8.052;2023-06-22T03:50:41;21.80;80.20
40960;DHT22;27842;52.272;8.052;2023-06-22T03:53:07;21.80;80.30
40960;DHT22;27842;52.272;8.052;2023-06-22T03:55:33;21.80;80.30
40960;DHT22;27842;52.272;8.052;2023-06-22T03:58:02;21.70;80.30
40960;DHT22;27842;52.272;8.052;2023-06-22T04:00:31;21.70;80.40
40960;DHT22;27842;52.272;8.052;2023-06-22T04:02:57;21.70;80.40
40960;DHT22;27842;52.272;8.052;2023-06-22T04:05:22;21.70;80.40
40960;DHT22;27842;52.272;8.052;2023-06-22T04:07:48;21.70;80.40
40960;DHT22;27842;52.272;8.052;2023-06-22T04:10:13;21.70;80.50
40960;DHT22;27842;52.272;8.052;2023-06-22T04:12:39;21.60;80.70
40960;DHT22;27842;52.272;8.052;2023-06-22T04:15:05;21.60;80.70
40960;DHT22;27842;52.272;8.052;2023-06-22T04:17:30;21.60;80.70
40960;DHT22;27842;52.272;8.052;2023-06-22T04:19:56;21.70;80.70
40960;DHT22;27842;52.272;8.052;2023-06-22T04:22:21;21.60;80.70
40960;DHT22;27842;52.272;8.052;2023-06-22T04:24:46;21.70;80.70
40960;DHT22;27842;52.272;8.052;2023-06-22T04:27:12;21.60;80.60
40960;DHT22;27842;52.272;8.052;2023-06-22T04:29:37;21.70;80.70
40960;DHT22;27842;52.272;8.052;2023-06-22T04:32:06;21.70;80.70
40960;DHT22;27842;52.272;8.052;2023-06-22T04:34:32;21.70;80.70
40960;DHT22;27842;52.272;8.052;2023-06-22T04:37:00;21.70;80.80
40960;DHT22;27842;52.272;8.052;2023-06-22T04:39:26;21.70;80.80
40960;DHT22;27842;52.272;8.052;2023-06-22T04:41:55;21.70;80.70
40960;DHT22;27842;52.272;8.052;2023-06-22T04:44:25;21.70;80.90
40960;DHT22;27842;52.272;8.052;2023-06-22T04:46:51;21.60;81.20
40960;DHT22;27842;52.272;8.052;2023-06-22T04:49:25;21.60;80.90
40960;DHT22;27842;52.272;8.052;2023-06-22T04:52:01;21.70;81.00
40960;DHT22;27842;52.272;8.052;2023-06-22T04:54:31;21.60;81.70
40960;DHT22;27842;52.272;8.052;2023-06-22T04:57:00;21.60;81.10
40960;DHT22;27842;52.272;8.052;2023-06-22T04:59:26;21.60;81.20
40960;DHT22;27842;52.272;8.052;2023-06-22T05:01:54;21.50;82.30
40960;DHT22;27842;52.272;8.052;2023-06-22T05:04:20;21.50;81.80
40960;DHT22;27842;52.272;8.052;2023-06-22T05:06:54;21.60;81.30
40960;DHT22;27842;52.272;8.052;2023-06-22T05:09:20;21.60;81.20
40960;DHT22;27842;52.272;8.052;2023-06-22T05:11:51;21.60;81.10
40960;DHT22;27842;52.272;8.052;2023-06-22T05:14:28;21.70;81.10
40960;DHT22;27842;52.272;8.052;2023-06-22T05:16:53;21.70;81.00
40960;DHT22;27842;52.272;8.052;2023-06-22T05:19:22;21.80;81.00
40960;DHT22;27842;52.272;8.052;2023-06-22T05:21:47;21.70;81.10
40960;DHT22;27842;52.272;8.052;2023-06-22T05:24:16;21.80;81.10
40960;DHT22;27842;52.272;8.052;2023-06-22T05:26:42;21.80;81.10
40960;DHT22;27842;52.272;8.052;2023-06-22T05:29:10;21.80;81.20
40960;DHT22;27842;52.272;8.052;2023-06-22T05:31:36;21.80;81.50
40960;DHT22;27842;52.272;8.052;2023-06-22T05:34:01;21.80;81.00
40960;DHT22;27842;52.272;8.052;2023-06-22T05:36:27;21.90;81.80
40960;DHT22;27842;52.272;8.052;2023-06-22T05:38:53;21.80;81.10
40960;DHT22;27842;52.272;8.052;2023-06-22T05:41:18;21.80;81.10
40960;DHT22;27842;52.272;8.052;2023-06-22T05:43:44;21.80;81.30
40960;DHT22;27842;52.272;8.052;2023-06-22T05:46:09;21.90;83.10
40960;DHT22;27842;52.272;8.052;2023-06-22T05:48:35;21.80;81.70
40960;DHT22;27842;52.272;8.052;2023-06-22T05:51:00;21.80;81.40
40960;DHT22;27842;52.272;8.052;2023-06-22T05:53:26;21.80;82.20
40960;DHT22;27842;52.272;8.052;2023-06-22T05:55:52;21.80;82.00
40960;DHT22;27842;52.272;8.052;2023-06-22T05:58:17;21.80;81.60
40960;DHT22;27842;52.272;8.052;2023-06-22T06:00:43;21.90;81.30
40960;DHT22;27842;52.272;8.052;2023-06-22T06:03:08;21.90;82.70
40960;DHT22;27842;52.272;8.052;2023-06-22T06:05:34;22.00;81.20
40960;DHT22;27842;52.272;8.052;2023-06-22T06:08:00;22.00;81.20
40960;DHT22;27842;52.272;8.052;2023-06-22T06:10:26;22.00;81.40
40960;DHT22;27842;52.272;8.052;2023-06-22T06:12:52;22.00;81.20
40960;DHT22;27842;52.272;8.052;2023-06-22T06:15:17;22.00;81.40
40960;DHT22;27842;52.272;8.052;2023-06-22T06:17:52;22.00;82.30
40960;DHT22;27842;52.272;8.052;2023-06-22T06:20:18;22.10;81.30
40960;DHT22;27842;52.272;8.052;2023-06-22T06:22:44;22.00;81.70
40960;DHT22;27842;52.272;8.052;2023-06-22T06:25:10;22.10;81.30
40960;DHT22;27842;52.272;8.052;2023-06-22T06:27:35;22.10;81.40
40960;DHT22;27842;52.272;8.052;2023-06-22T06:30:04;22.20;81.10
40960;DHT22;27842;52.272;8.052;2023-06-22T06:32:30;22.30;80.90
40960;DHT22;27842;52.272;8.052;2023-06-22T06:34:55;22.40;81.40
40960;DHT22;27842;52.272;8.052;2023-06-22T06:37:21;22.40;80.70
40960;DHT22;27842;52.272;8.052;2023-06-22T06:39:46;22.50;80.70
40960;DHT22;27842;52.272;8.052;2023-06-22T06:42:12;22.50;80.60
40960;DHT22;27842;52.272;8.052;2023-06-22T06:44:37;22.60;80.40
40960;DHT22;27842;52.272;8.052;2023-06-22T06:47:03;22.60;80.20
40960;DHT22;27842;52.272;8.052;2023-06-22T06:49:29;22.70;80.90
40960;DHT22;27842;52.272;8.052;2023-06-22T06:51:55;22.70;80.60
40960;DHT22;27842;52.272;8.052;2023-06-22T06:54:24;22.70;81.40
40960;DHT22;27842;52.272;8.052;2023-06-22T06:56:49;22.60;81.00
40960;DHT22;27842;52.272;8.052;2023-06-22T06:59:15;22.60;81.20
40960;DHT22;27842;52.272;8.052;2023-06-22T07:01:41;22.60;81.60
40960;DHT22;27842;52.272;8.052;2023-06-22T07:04:10;22.70;81.20
40960;DHT22;27842;52.272;8.052;2023-06-22T07:06:35;22.80;80.90
40960;DHT22;27842;52.272;8.052;2023-06-22T07:09:01;22.80;81.10
40960;DHT22;27842;52.272;8.052;2023-06-22T07:11:28;22.90;80.70
40960;DHT22;27842;52.272;8.052;2023-06-22T07:13:54;22.90;82.80
40960;DHT22;27842;52.272;8.052;2023-06-22T07:16:20;22.90;80.90
40960;DHT22;27842;52.272;8.052;2023-06-22T07:18:45;23.00;81.00
40960;DHT22;27842;52.272;8.052;2023-06-22T07:21:11;23.00;80.80
40960;DHT22;27842;52.272;8.052;2023-06-22T07:23:36;23.00;82.40
40960;DHT22;27842;52.272;8.052;2023-06-22T07:26:05;23.00;81.90
40960;DHT22;27842;52.272;8.052;2023-06-22T07:28:35;23.00;80.70
40960;DHT22;27842;52.272;8.052;2023-06-22T07:31:03;23.00;81.70
40960;DHT22;27842;52.272;8.052;2023-06-22T07:33:29;23.10;81.10
40960;DHT22;27842;52.272;8.052;2023-06-22T07:35:55;23.10;80.70
40960;DHT22;27842;52.272;8.052;2023-06-22T07:38:20;23.10;80.70
40960;DHT22;27842;52.272;8.052;2023-06-22T07:40:46;23.10;80.70
40960;DHT22;27842;52.272;8.052;2023-06-22T07:43:12;23.20;81.60
40960;DHT22;27842;52.272;8.052;2023-06-22T07:45:38;23.20;80.60
40960;DHT22;27842;52.272;8.052;2023-06-22T07:48:05;23.20;82.40
40960;DHT22;27842;52.272;8.052;2023-06-22T07:50:36;23.20;80.60
40960;DHT22;27842;52.272;8.052;2023-06-22T07:53:02;23.20;81.20
40960;DHT22;27842;52.272;8.052;2023-06-22T07:55:27;23.30;81.10
40960;DHT22;27842;52.272;8.052;2023-06-22T07:57:53;23.30;80.60
40960;DHT22;27842;52.272;8.052;2023-06-22T08:00:18;23.30;81.40
40960;DHT22;27842;52.272;8.052;2023-06-22T08:02:45;23.40;80.30
40960;DHT22;27842;52.272;8.052;2023-06-22T08:05:12;23.40;81.10
40960;DHT22;27842;52.272;8.052;2023-06-22T08:07:38;23.40;80.60
40960;DHT22;27842;52.272;8.052;2023-06-22T08:10:04;23.40;80.10
40960;DHT22;27842;52.272;8.052;2023-06-22T08:12:30;23.50;81.10
40960;DHT22;27842;52.272;8.052;2023-06-22T08:14:56;23.40;80.80
40960;DHT22;27842;52.272;8.052;2023-06-22T08:17:22;23.50;80.70
40960;DHT22;27842;52.272;8.052;2023-06-22T08:19:48;23.50;82.00
40960;DHT22;27842;52.272;8.052;2023-06-22T08:22:13;23.50;81.00
40960;DHT22;27842;52.272;8.052;2023-06-22T08:24:39;23.50;80.40
40960;DHT22;27842;52.272;8.052;2023-06-22T08:27:06;23.50;82.30
40960;DHT22;27842;52.272;8.052;2023-06-22T08:29:33;23.50;81.40
40960;DHT22;27842;52.272;8.052;2023-06-22T08:31:59;23.40;80.70
40960;DHT22;27842;52.272;8.052;2023-06-22T08:34:24;23.40;81.10
40960;DHT22;27842;52.272;8.052;2023-06-22T08:36:52;23.40;81.00
40960;DHT22;27842;52.272;8.052;2023-06-22T08:39:20;23.40;81.10
40960;DHT22;27842;52.272;8.052;2023-06-22T08:41:47;23.50;81.60
40960;DHT22;27842;52.272;8.052;2023-06-22T08:44:12;23.50;81.90
40960;DHT22;27842;52.272;8.052;2023-06-22T08:46:38;23.50;80.90
40960;DHT22;27842;52.272;8.052;2023-06-22T08:49:05;23.50;81.50
40960;DHT22;27842;52.272;8.052;2023-06-22T08:51:31;23.50;80.80
40960;DHT22;27842;52.272;8.052;2023-06-22T08:53:56;23.50;81.30
40960;DHT22;27842;52.272;8.052;2023-06-22T08:56:22;23.50;81.00
40960;DHT22;27842;52.272;8.052;2023-06-22T08:58:48;23.50;80.80
40960;DHT22;27842;52.272;8.052;2023-06-22T09:01:16;23.50;80.70
40960;DHT22;27842;52.272;8.052;2023-06-22T09:03:42;23.60;80.90
40960;DHT22;27842;52.272;8.052;2023-06-22T09:06:07;23.60;80.70
40960;DHT22;27842;52.272;8.052;2023-06-22T09:08:35;23.60;81.90
40960;DHT22;27842;52.272;8.052;2023-06-22T09:11:00;23.60;80.90
40960;DHT22;27842;52.272;8.052;2023-06-22T09:13:26;23.60;80.90
40960;DHT22;27842;52.272;8.052;2023-06-22T09:15:51;23.60;81.20
40960;DHT22;27842;52.272;8.052;2023-06-22T09:18:17;23.60;81.10
40960;DHT22;27842;52.272;8.052;2023-06-22T09:20:43;23.70;81.50
40960;DHT22;27842;52.272;8.052;2023-06-22T09:23:08;23.70;81.90
40960;DHT22;27842;52.272;8.052;2023-06-22T09:25:36;23.70;81.40
40960;DHT22;27842;52.272;8.052;2023-06-22T09:28:05;23.70;81.40
40960;DHT22;27842;52.272;8.052;2023-06-22T09:30:30;23.70;82.70
40960;DHT22;27842;52.272;8.052;2023-06-22T09:32:56;23.70;82.80
40960;DHT22;27842;52.272;8.052;2023-06-22T09:35:24;23.70;82.10
40960;DHT22;27842;52.272;8.052;2023-06-22T09:37:50;23.70;82.90
40960;DHT22;27842;52.272;8.052;2023-06-22T09:40:15;23.70;82.10
40960;DHT22;27842;52.272;8.052;2023-06-22T09:42:42;23.80;82.20
40960;DHT22;27842;52.272;8.052;2023-06-22T09:45:07;23.80;81.40
40960;DHT22;27842;52.272;8.052;2023-06-22T09:47:33;23.90;84.50
40960;DHT22;27842;52.272;8.052;2023-06-22T09:49:58;24.00;82.30
40960;DHT22;27842;52.272;8.052;2023-06-22T09:52:25;24.00;83.90
40960;DHT22;27842;52.272;8.052;2023-06-22T09:54:50;24.00;81.20
40960;DHT22;27842;52.272;8.052;2023-06-22T09:57:16;24.10;80.90
40960;DHT22;27842;52.272;8.052;2023-06-22T09:59:42;24.20;80.90
40960;DHT22;27842;52.272;8.052;2023-06-22T10:02:08;24.20;81.50
40960;DHT22;27842;52.272;8.052;2023-06-22T10:04:34;24.30;80.70
40960;DHT22;27842;52.272;8.052;2023-06-22T10:06:59;24.30;81.20
40960;DHT22;27842;52.272;8.052;2023-06-22T10:09:25;24.40;80.70
40960;DHT22;27842;52.272;8.052;2023-06-22T10:11:50;24.40;82.40
40960;DHT22;27842;52.272;8.052;2023-06-22T10:14:22;24.50;80.50
40960;DHT22;27842;52.272;8.052;2023-06-22T10:16:48;24.50;82.40
40960;DHT22;27842;52.272;8.052;2023-06-22T10:19:13;24.70;80.60
40960;DHT22;27842;52.272;8.052;2023-06-22T10:21:39;24.80;80.30
40960;DHT22;27842;52.272;8.052;2023-06-22T10:24:04;24.90;80.10
40960;DHT22;27842;52.272;8.052;2023-06-22T10:26:34;24.90;80.00
40960;DHT22;27842;52.272;8.052;2023-06-22T10:29:00;25.00;81.00
40960;DHT22;27842;52.272;8.052;2023-06-22T10:31:25;25.10;80.00
40960;DHT22;27842;52.272;8.052;2023-06-22T10:33:53;25.10;81.90
40960;DHT22;27842;52.272;8.052;2023-06-22T10:36:25;25.10;80.20
40960;DHT22;27842;52.272;8.052;2023-06-22T10:38:50;25.10;79.70
40960;DHT22;27842;52.272;8.052;2023-06-22T10:41:16;25.20;79.90
40960;DHT22;27842;52.272;8.052;2023-06-22T10:43:42;25.20;81.00
40960;DHT22;27842;52.272;8.052;2023-06-22T10:46:07;25.20;81.40
40960;DHT22;27842;52.272;8.052;2023-06-22T10:48:33;25.20;80.80
40960;DHT22;27842;52.272;8.052;2023-06-22T10:50:58;25.20;80.70
40960;DHT22;27842;52.272;8.052;2023-06-22T10:53:24;25.20;81.40
40960;DHT22;27842;52.272;8.052;2023-06-22T10:55:49;25.20;80.50
40960;DHT22;27842;52.272;8.052;2023-06-22T10:58:17;25.20;80.30
40960;DHT22;27842;52.272;8.052;2023-06-22T11:00:43;25.20;80.00
40960;DHT22;27842;52.272;8.052;2023-06-22T11:03:08;25.30;80.10
40960;DHT22;27842;52.272;8.052;2023-06-22T11:05:34;25.30;79.90
40960;DHT22;27842;52.272;8.052;2023-06-22T11:08:02;25.40;80.60
40960;DHT22;27842;52.272;8.052;2023-06-22T11:10:28;25.40;79.80
40960;DHT22;27842;52.272;8.052;2023-06-22T11:12:54;25.40;79.80
40960;DHT22;27842;52.272;8.052;2023-06-22T11:15:20;25.50;81.30
40960;DHT22;27842;52.272;8.052;2023-06-22T11:17:46;25.50;79.90
40960;DHT22;27842;52.272;8.052;2023-06-22T11:20:11;25.50;79.90
40960;DHT22;27842;52.272;8.052;2023-06-22T11:22:40;25.50;79.80
40960;DHT22;27842;52.272;8.052;2023-06-22T11:25:06;25.50;79.90
40960;DHT22;27842;52.272;8.052;2023-06-22T11:27:32;25.50;79.90
40960;DHT22;27842;52.272;8.052;2023-06-22T11:29:57;25.50;80.90
40960;DHT22;27842;52.272;8.052;2023-06-22T11:32:23;25.50;81.90
40960;DHT22;27842;52.272;8.052;2023-06-22T11:34:49;25.50;80.40
40960;DHT22;27842;52.272;8.052;2023-06-22T11:37:14;25.50;80.20
40960;DHT22;27842;52.272;8.052;2023-06-22T11:39:41;25.60;81.00
40960;DHT22;27842;52.272;8.052;2023-06-22T11:42:06;25.60;81.00
40960;DHT22;27842;52.272;8.052;2023-06-22T11:44:32;25.60;79.90
40960;DHT22;27842;52.272;8.052;2023-06-22T11:46:57;25.70;80.40
40960;DHT22;27842;52.272;8.052;2023-06-22T11:49:32;25.80;80.00
40960;DHT22;27842;52.272;8.052;2023-06-22T11:51:57;25.80;80.00
40960;DHT22;27842;52.272;8.052;2023-06-22T11:54:23;25.80;79.60
40960;DHT22;27842;52.272;8.052;2023-06-22T11:56:49;25.80;79.50
40960;DHT22;27842;52.272;8.052;2023-06-22T11:59:14;25.80;79.50
40960;DHT22;27842;52.272;8.052;2023-06-22T12:01:39;25.80;79.70
40960;DHT22;27842;52.272;8.052;2023-06-22T12:04:05;25.80;79.90
40960;DHT22;27842;52.272;8.052;2023-06-22T12:06:35;25.80;79.50
40960;DHT22;27842;52.272;8.052;2023-06-22T12:09:03;25.80;79.40
40960;DHT22;27842;52.272;8.052;2023-06-22T12:11:30;25.80;79.60
40960;DHT22;27842;52.272;8.052;2023-06-22T12:13:55;25.80;79.70
40960;DHT22;27842;52.272;8.052;2023-06-22T12:16:21;25.80;79.30
40960;DHT22;27842;52.272;8.052;2023-06-22T12:18:47;25.90;80.10
40960;DHT22;27842;52.272;8.052;2023-06-22T12:21:16;25.90;80.10
40960;DHT22;27842;52.272;8.052;2023-06-22T12:23:44;25.90;79.60
40960;DHT22;27842;52.272;8.052;2023-06-22T12:26:09;26.00;79.90
40960;DHT22;27842;52.272;8.052;2023-06-22T12:28:38;26.00;79.10
40960;DHT22;27842;52.272;8.052;2023-06-22T12:31:03;26.10;79.20
40960;DHT22;27842;52.272;8.052;2023-06-22T12:33:29;26.10;79.10
40960;DHT22;27842;52.272;8.052;2023-06-22T12:35:56;26.10;79.30
40960;DHT22;27842;52.272;8.052;2023-06-22T12:38:21;26.10;79.00
40960;DHT22;27842;52.272;8.052;2023-06-22T12:40:50;26.10;79.00
40960;DHT22;27842;52.272;8.052;2023-06-22T12:43:16;26.10;78.90
40960;DHT22;27842;52.272;8.052;2023-06-22T12:45:41;26.10;78.90
40960;DHT22;27842;52.272;8.052;2023-06-22T12:48:07;26.10;79.10
40960;DHT22;27842;52.272;8.052;2023-06-22T12:50:33;26.10;79.60
40960;DHT22;27842;52.272;8.052;2023-06-22T12:52:59;26.10;79.00
40960;DHT22;27842;52.272;8.052;2023-06-22T12:55:25;26.10;78.90
40960;DHT22;27842;52.272;8.052;2023-06-22T12:57:50;26.10;79.40
40960;DHT22;27842;52.272;8.052;2023-06-22T13:00:16;26.10;78.90
40960;DHT22;27842;52.272;8.052;2023-06-22T13:02:41;26.10;79.20
40960;DHT22;27842;52.272;8.052;2023-06-22T13:05:07;26.00;79.00
40960;DHT22;27842;52.272;8.052;2023-06-22T13:07:34;26.00;78.80
40960;DHT22;27842;52.272;8.052;2023-06-22T13:09:59;26.00;79.00
40960;DHT22;27842;52.272;8.052;2023-06-22T13:12:25;26.00;79.60
40960;DHT22;27842;52.272;8.052;2023-06-22T13:14:50;26.00;79.10
40960;DHT22;27842;52.272;8.052;2023-06-22T13:17:16;25.90;79.50
40960;DHT22;27842;52.272;8.052;2023-06-22T13:19:42;25.90;79.70
40960;DHT22;27842;52.272;8.052;2023-06-22T13:22:25;26.00;79.10
40960;DHT22;27842;52.272;8.052;2023-06-22T13:24:51;25.90;79.20
40960;DHT22;27842;52.272;8.052;2023-06-22T13:27:16;25.90;79.20
40960;DHT22;27842;52.272;8.052;2023-06-22T13:29:41;25.90;79.80
40960;DHT22;27842;52.272;8.052;2023-06-22T13:32:10;25.80;80.40
40960;DHT22;27842;52.272;8.052;2023-06-22T13:34:35;25.90;79.60
40960;DHT22;27842;52.272;8.052;2023-06-22T13:37:01;25.80;79.80
40960;DHT22;27842;52.272;8.052;2023-06-22T13:39:26;25.80;80.60
40960;DHT22;27842;52.272;8.052;2023-06-22T13:41:52;25.80;80.40
40960;DHT22;27842;52.272;8.052;2023-06-22T13:44:17;25.70;80.20
40960;DHT22;27842;52.272;8.052;2023-06-22T13:46:43;25.70;82.50
40960;DHT22;27842;52.272;8.052;2023-06-22T13:49:09;25.60;80.60
40960;DHT22;27842;52.272;8.052;2023-06-22T13:51:35;25.60;82.50
40960;DHT22;27842;52.272;8.052;2023-06-22T13:54:01;25.50;82.00
40960;DHT22;27842;52.272;8.052;2023-06-22T13:56:26;25.50;82.90
40960;DHT22;27842;52.272;8.052;2023-06-22T13:58:52;25.40;85.20
40960;DHT22;27842;52.272;8.052;2023-06-22T14:01:17;25.30;81.40
40960;DHT22;27842;52.272;8.052;2023-06-22T14:03:43;25.30;81.60
40960;DHT22;27842;52.272;8.052;2023-06-22T14:06:10;25.20;82.60
40960;DHT22;27842;52.272;8.052;2023-06-22T14:08:36;25.10;81.80
40960;DHT22;27842;52.272;8.052;2023-06-22T14:11:02;25.10;82.20
40960;DHT22;27842;52.272;8.052;2023-06-22T14:13:28;25.10;83.70
40960;DHT22;27842;52.272;8.052;2023-06-22T14:15:53;25.00;86.40
40960;DHT22;27842;52.272;8.052;2023-06-22T14:18:19;24.80;86.80
40960;DHT22;27842;52.272;8.052;2023-06-22T14:20:44;24.70;91.30
40960;DHT22;27842;52.272;8.052;2023-06-22T14:23:11;24.60;88.10
40960;DHT22;27842;52.272;8.052;2023-06-22T14:25:36;24.50;88.20
40960;DHT22;27842;52.272;8.052;2023-06-22T14:28:02;24.40;91.00
40960;DHT22;27842;52.272;8.052;2023-06-22T14:30:27;24.40;89.20
40960;DHT22;27842;52.272;8.052;2023-06-22T14:32:53;24.30;89.40
40960;DHT22;27842;52.272;8.052;2023-06-22T14:35:18;24.30;90.00
40960;DHT22;27842;52.272;8.052;2023-06-22T14:37:44;24.30;90.50
40960;DHT22;27842;52.272;8.052;2023-06-22T14:40:10;24.20;92.30
40960;DHT22;27842;52.272;8.052;2023-06-22T14:42:35;24.20;92.10
40960;DHT22;27842;52.272;8.052;2023-06-22T14:45:01;24.00;91.50
40960;DHT22;27842;52.272;8.052;2023-06-22T14:47:26;24.00;91.70
40960;DHT22;27842;52.272;8.052;2023-06-22T14:49:52;24.00;91.70
40960;DHT22;27842;52.272;8.052;2023-06-22T14:52:17;24.00;92.20
40960;DHT22;27842;52.272;8.052;2023-06-22T14:54:43;23.90;92.40
40960;DHT22;27842;52.272;8.052;2023-06-22T14:57:08;23.80;93.10
40960;DHT22;27842;52.272;8.052;2023-06-22T14:59:34;23.80;93.80
40960;DHT22;27842;52.272;8.052;2023-06-22T15:01:59;23.80;92.40
40960;DHT22;27842;52.272;8.052;2023-06-22T15:04:25;23.80;92.40
40960;DHT22;27842;52.272;8.052;2023-06-22T15:06:52;23.80;94.00
40960;DHT22;27842;52.272;8.052;2023-06-22T15:09:18;23.70;93.10
40960;DHT22;27842;52.272;8.052;2023-06-22T15:11:43;23.70;92.40
40960;DHT22;27842;52.272;8.052;2023-06-22T15:14:09;23.70;92.20
40960;DHT22;27842;52.272;8.052;2023-06-22T15:16:34;23.70;92.30
40960;DHT22;27842;52.272;8.052;2023-06-22T15:19:00;23.70;92.40
40960;DHT22;27842;52.272;8.052;2023-06-22T15:21:25;23.70;92.40
40960;DHT22;27842;52.272;8.052;2023-06-22T15:23:51;23.70;92.60
40960;DHT22;27842;52.272;8.052;2023-06-22T15:26:16;23.70;92.60
40960;DHT22;27842;52.272;8.052;2023-06-22T15:28:42;23.80;92.80
40960;DHT22;27842;52.272;8.052;2023-06-22T15:31:08;23.80;92.60
40960;DHT22;27842;52.272;8.052;2023-06-22T15:33:34;23.90;92.40
40960;DHT22;27842;52.272;8.052;2023-06-22T15:35:59;23.80;92.60
40960;DHT22;27842;52.272;8.052;2023-06-22T15:38:29;23.90;92.90